createdAt,value
2023-05-14T00:00:36.024Z,48.0293
2023-05-14T00:01:37.762Z,47.9931
2023-05-14T00:02:39.547Z,47.9976
2023-05-14T00:03:41.451Z,47.9987
2023-05-14T00:04:42.980Z,48.0003
2023-05-14T00:05:44.704Z,47.9818
2023-05-14T00:06:46.459Z,47.9859
2023-05-14T00:07:48.157Z,47.9663
2023-05-14T00:08:49.906Z,47.9504
2023-05-14T00:09:51.659Z,47.9597
2023-05-14T00:10:53.385Z,47.9278
2023-05-14T00:11:55.097Z,47.9435
2023-05-14T00:12:56.835Z,47.9633
2023-05-14T00:13:58.567Z,47.9502
2023-05-14T00:15:00.321Z,47.9519
2023-05-14T00:16:02.064Z,47.9293
2023-05-14T00:17:03.763Z,47.9273
2023-05-14T00:18:05.532Z,47.9181
2023-05-14T00:19:07.378Z,47.9261
2023-05-14T00:20:09.077Z,47.9132
2023-05-14T00:21:10.807Z,47.9083
2023-05-14T00:22:12.519Z,47.8853
2023-05-14T00:23:14.253Z,47.8866
2023-05-14T00:24:15.989Z,47.8949
2023-05-14T00:25:17.715Z,47.8814
2023-05-14T00:26:19.456Z,47.8768
2023-05-14T00:27:21.190Z,47.8703
2023-05-14T00:28:22.933Z,47.8622
2023-05-14T00:29:24.673Z,47.8442
2023-05-14T00:30:26.407Z,47.8508
2023-05-14T00:31:28.135Z,47.8323
2023-05-14T00:32:29.911Z,47.8156
2023-05-14T00:33:31.605Z,47.8402
2023-05-14T00:34:33.333Z,47.8195
2023-05-14T00:35:35.077Z,47.8049
2023-05-14T00:36:36.787Z,47.7937
2023-05-14T00:37:38.512Z,47.7979
2023-05-14T00:38:40.251Z,47.7752
2023-05-14T00:39:42.004Z,47.7599
2023-05-14T00:40:43.738Z,47.7722
2023-05-14T00:41:45.464Z,47.7531
2023-05-14T00:42:47.190Z,47.7675
2023-05-14T00:43:48.913Z,47.7582
2023-05-14T00:44:50.665Z,47.7533
2023-05-14T00:45:52.402Z,47.7624
2023-05-14T00:46:54.198Z,47.7265
2023-05-14T00:47:55.849Z,47.7204
2023-05-14T00:48:57.570Z,47.7198
2023-05-14T00:49:59.318Z,47.7348
2023-05-14T00:51:01.058Z,47.7268
2023-05-14T00:52:02.784Z,47.7447
2023-05-14T00:53:04.497Z,47.7198
2023-05-14T00:54:06.244Z,47.7026
2023-05-14T00:55:07.985Z,47.6721
2023-05-14T00:56:09.743Z,47.6837
2023-05-14T00:57:11.466Z,47.6347
2023-05-14T00:58:13.169Z,47.6218
2023-05-14T00:59:14.891Z,47.6657
2023-05-14T01:00:16.691Z,47.6375
2023-05-14T01:01:18.414Z,47.6269
2023-05-14T01:02:20.142Z,47.6403
2023-05-14T01:03:21.872Z,47.6314
2023-05-14T01:04:23.547Z,47.6366
2023-05-14T01:05:25.276Z,47.6144
2023-05-14T01:06:27.039Z,47.6303
2023-05-14T01:07:28.765Z,47.6383
2023-05-14T01:08:30.491Z,47.6147
2023-05-14T01:09:32.207Z,47.6236
2023-05-14T01:10:33.943Z,47.6256
2023-05-14T01:11:35.685Z,47.5950
2023-05-14T01:12:37.427Z,47.5783
2023-05-14T01:13:39.159Z,47.5924
2023-05-14T01:14:40.873Z,47.5449
2023-05-14T01:15:42.602Z,47.5515
2023-05-14T01:16:44.361Z,47.5563
2023-05-14T01:17:46.118Z,47.5266
2023-05-14T01:18:47.878Z,47.5282
2023-05-14T01:19:49.531Z,47.5351
2023-05-14T01:20:51.267Z,47.5267
2023-05-14T01:21:53.012Z,47.5328
2023-05-14T01:22:54.772Z,47.5138
2023-05-14T01:23:56.488Z,47.4976
2023-05-14T01:24:58.227Z,47.4902
2023-05-14T01:25:59.937Z,47.4550
2023-05-14T01:27:01.684Z,47.4610
2023-05-14T01:28:03.397Z,47.4560
2023-05-14T01:29:05.164Z,47.4687
2023-05-14T01:30:06.886Z,47.4523
2023-05-14T01:31:08.605Z,47.4295
2023-05-14T01:32:10.433Z,47.4323
2023-05-14T01:33:12.070Z,47.4355
2023-05-14T01:34:13.820Z,47.4160
2023-05-14T01:35:15.563Z,47.4168
2023-05-14T01:36:17.265Z,47.4002
2023-05-14T01:37:19.008Z,47.4068
2023-05-14T01:38:20.755Z,47.3948
2023-05-14T01:39:22.465Z,47.3942
2023-05-14T01:40:24.395Z,47.3918
2023-05-14T01:41:25.926Z,47.3953
2023-05-14T01:42:27.680Z,47.3811
2023-05-14T01:43:29.510Z,47.3544
2023-05-14T01:44:31.136Z,47.3352
2023-05-14T01:45:32.845Z,47.3108
2023-05-14T01:46:34.579Z,47.2706
2023-05-14T01:47:36.364Z,47.2825
2023-05-14T01:48:38.059Z,47.3165
2023-05-14T01:49:39.786Z,47.3071
2023-05-14T01:50:41.502Z,47.2932
2023-05-14T01:51:43.242Z,47.2460
2023-05-14T01:52:45.004Z,47.2452
2023-05-14T01:53:46.692Z,47.2329
2023-05-14T01:54:48.435Z,47.2197
2023-05-14T01:55:50.160Z,47.2271
2023-05-14T01:56:51.907Z,47.2174
2023-05-14T01:57:53.643Z,47.1783
2023-05-14T01:58:55.369Z,47.1775
2023-05-14T01:59:57.080Z,47.1585
2023-05-14T02:00:58.888Z,47.1430
2023-05-14T02:02:00.742Z,47.1432
2023-05-14T02:03:02.359Z,47.1253
2023-05-14T02:04:04.104Z,47.0926
2023-05-14T02:05:06.913Z,47.0922
2023-05-14T02:07:27.112Z,47.0769
2023-05-14T02:08:28.754Z,47.0500
2023-05-14T02:09:30.486Z,47.0424
2023-05-14T02:12:26.325Z,47.0616
2023-05-14T02:13:28.043Z,47.0263
2023-05-14T02:14:29.773Z,47.0620
2023-05-14T02:15:31.531Z,47.0379
2023-05-14T02:16:33.257Z,47.0528
2023-05-14T02:17:35.037Z,47.0412
2023-05-14T02:18:36.759Z,47.0247
2023-05-14T02:19:38.480Z,47.0086
2023-05-14T02:20:40.188Z,47.0182
2023-05-14T02:21:41.939Z,47.0163
2023-05-14T02:22:43.655Z,47.0341
2023-05-14T02:23:45.387Z,47.0220
2023-05-14T02:24:47.132Z,46.9934
2023-05-14T02:25:48.855Z,46.9731
2023-05-14T02:26:50.621Z,46.9589
2023-05-14T02:27:52.355Z,46.9575
2023-05-14T02:28:54.072Z,46.9616
2023-05-14T02:29:55.805Z,46.9574
2023-05-14T02:34:11.282Z,46.9294
2023-05-14T02:35:13.001Z,46.9258
2023-05-14T02:36:14.761Z,46.9229
2023-05-14T02:37:16.468Z,46.8980
2023-05-14T02:38:18.259Z,46.8668
2023-05-14T02:39:19.947Z,46.8818
2023-05-14T02:40:21.871Z,46.8762
2023-05-14T02:41:23.418Z,46.8526
2023-05-14T02:42:25.173Z,46.8238
2023-05-14T02:43:26.898Z,46.8514
2023-05-14T02:44:28.651Z,46.8471
2023-05-14T02:45:30.393Z,46.8325
2023-05-14T02:46:32.314Z,46.8144
2023-05-14T02:47:36.030Z,46.8256
2023-05-14T02:48:35.571Z,46.8107
2023-05-14T02:49:37.328Z,46.8187
2023-05-14T02:50:39.064Z,46.7941
2023-05-14T02:51:40.774Z,46.8066
2023-05-14T02:52:42.503Z,46.8107
2023-05-14T02:53:44.239Z,46.8129
2023-05-14T02:54:46.004Z,46.8017
2023-05-14T02:55:47.758Z,46.8204
2023-05-14T02:56:49.443Z,46.8429
2023-05-14T02:57:51.185Z,46.8167
2023-05-14T02:58:52.922Z,46.7982
2023-05-14T02:59:54.670Z,46.7610
2023-05-14T03:00:56.486Z,46.7740
2023-05-14T03:01:58.199Z,46.8002
2023-05-14T03:02:59.876Z,46.7980
2023-05-14T03:04:01.592Z,46.7951
2023-05-14T03:05:03.323Z,46.7783
2023-05-14T03:06:05.085Z,46.7842
2023-05-14T03:07:06.818Z,46.7853
2023-05-14T03:08:08.529Z,46.7612
2023-05-14T03:09:10.269Z,46.7865
2023-05-14T03:10:11.993Z,46.7878
2023-05-14T03:11:13.763Z,46.7737
2023-05-14T03:12:15.486Z,46.7798
2023-05-14T03:13:17.221Z,46.7650
2023-05-14T03:14:18.972Z,46.7628
2023-05-14T03:15:20.672Z,46.7491
2023-05-14T03:16:22.442Z,46.7335
2023-05-14T03:17:24.217Z,46.7305
2023-05-14T03:18:25.969Z,46.7293
2023-05-14T03:19:27.619Z,46.7439
2023-05-14T03:20:29.331Z,46.7366
2023-05-14T03:21:31.072Z,46.7085
2023-05-14T03:22:32.829Z,46.7168
2023-05-14T03:23:34.585Z,46.7046
2023-05-14T03:24:36.301Z,46.6994
2023-05-14T03:25:38.027Z,46.6945
2023-05-14T03:26:39.756Z,46.6792
2023-05-14T03:27:41.514Z,46.6629
2023-05-14T03:28:43.259Z,46.6669
2023-05-14T03:29:44.958Z,46.6408
2023-05-14T03:30:46.764Z,46.6399
2023-05-14T03:31:48.445Z,46.6320
2023-05-14T03:32:50.235Z,46.6019
2023-05-14T03:33:51.934Z,46.6063
2023-05-14T03:34:53.645Z,46.6075
2023-05-14T03:35:55.385Z,46.5742
2023-05-14T03:36:57.133Z,46.5944
2023-05-14T03:37:58.877Z,46.5541
2023-05-14T03:39:00.620Z,46.5445
2023-05-14T03:40:02.358Z,46.5488
2023-05-14T03:41:04.060Z,46.5350
2023-05-14T03:42:05.796Z,46.5307
2023-05-14T03:43:07.543Z,46.4952
2023-05-14T03:44:09.294Z,46.4907
2023-05-14T03:45:11.037Z,46.5042
2023-05-14T03:46:12.740Z,46.5074
2023-05-14T03:47:14.472Z,46.5020
2023-05-14T03:48:16.298Z,46.4992
2023-05-14T03:49:17.983Z,46.4809
2023-05-14T03:50:19.697Z,46.4602
2023-05-14T03:51:21.434Z,46.4611
2023-05-14T03:52:23.151Z,46.4762
2023-05-14T03:53:24.885Z,46.4618
2023-05-14T03:54:26.638Z,46.4674
2023-05-14T03:55:28.375Z,46.4637
2023-05-14T03:56:30.095Z,46.4679
2023-05-14T03:57:31.847Z,46.4595
2023-05-14T03:58:33.586Z,46.4982
2023-05-14T03:59:35.315Z,46.4964
2023-05-14T04:00:37.032Z,46.5043
2023-05-14T04:01:38.791Z,46.4860
2023-05-14T04:02:40.561Z,46.4994
2023-05-14T04:03:42.368Z,46.5043
2023-05-14T04:04:44.000Z,46.4972
2023-05-14T04:05:45.725Z,46.4777
2023-05-14T04:06:47.455Z,46.5013
2023-05-14T04:07:49.221Z,46.5042
2023-05-14T04:08:50.908Z,46.4940
2023-05-14T04:09:52.662Z,46.4969
2023-05-14T04:10:54.424Z,46.4983
2023-05-14T04:11:56.125Z,46.4866
2023-05-14T04:12:57.876Z,46.4939
2023-05-14T04:13:59.577Z,46.5189
2023-05-14T04:15:01.330Z,46.5249
2023-05-14T04:16:03.060Z,46.5242
2023-05-14T04:17:04.814Z,46.5205
2023-05-14T04:18:06.629Z,46.5149
2023-05-14T04:19:08.322Z,46.4924
2023-05-14T04:20:09.991Z,46.4980
2023-05-14T04:21:11.727Z,46.5053
2023-05-14T04:22:13.465Z,46.4930
2023-05-14T04:23:15.214Z,46.4888
2023-05-14T04:24:16.950Z,46.5260
2023-05-14T04:25:18.667Z,46.5154
2023-05-14T04:26:20.430Z,46.5015
2023-05-14T04:27:22.138Z,46.5023
2023-05-14T04:28:23.895Z,46.5256
2023-05-14T04:29:25.634Z,46.4879
2023-05-14T04:30:27.382Z,46.4726
2023-05-14T04:31:29.130Z,46.4744
2023-05-14T04:32:30.818Z,46.4920
2023-05-14T04:33:32.569Z,46.4897
2023-05-14T04:34:34.296Z,46.4918
2023-05-14T04:35:36.067Z,46.4953
2023-05-14T04:36:37.751Z,46.4728
2023-05-14T04:37:39.472Z,46.4949
2023-05-14T04:38:41.226Z,46.5073
2023-05-14T04:39:42.963Z,46.4714
2023-05-14T04:40:44.698Z,46.4741
2023-05-14T04:41:46.429Z,46.4856
2023-05-14T04:42:48.169Z,46.4931
2023-05-14T04:43:49.892Z,46.5170
2023-05-14T04:44:51.599Z,46.5183
2023-05-14T04:45:53.363Z,46.5075
2023-05-14T04:46:55.096Z,46.5165
2023-05-14T04:47:56.859Z,46.5201
2023-05-14T04:48:58.574Z,46.5284
2023-05-14T04:50:00.396Z,46.5257
2023-05-14T04:51:02.025Z,46.5093
2023-05-14T04:52:03.767Z,46.5310
2023-05-14T04:53:05.508Z,46.5425
2023-05-14T04:54:07.238Z,46.5444
2023-05-14T04:55:08.960Z,46.5462
2023-05-14T04:56:10.696Z,46.5609
2023-05-14T04:57:12.425Z,46.5759
2023-05-14T04:58:14.139Z,46.5915
2023-05-14T04:59:15.872Z,46.5928
2023-05-14T05:00:17.610Z,46.5845
2023-05-14T05:01:19.420Z,46.5791
2023-05-14T05:02:21.092Z,46.5724
2023-05-14T05:03:22.967Z,46.5962
2023-05-14T05:04:24.540Z,46.5807
2023-05-14T05:05:26.288Z,46.5985
2023-05-14T05:06:28.050Z,46.6070
2023-05-14T05:07:29.781Z,46.6228
2023-05-14T05:08:31.501Z,46.6229
2023-05-14T05:09:33.217Z,46.6302
2023-05-14T05:10:34.998Z,46.6178
2023-05-14T05:11:36.706Z,46.6178
2023-05-14T05:12:38.466Z,46.6070
2023-05-14T05:13:40.157Z,46.6035
2023-05-14T05:14:41.889Z,46.5885
2023-05-14T05:15:43.659Z,46.5927
2023-05-14T05:16:45.382Z,46.6187
2023-05-14T05:17:47.180Z,46.6242
2023-05-14T05:18:48.879Z,46.6262
2023-05-14T05:19:50.582Z,46.6299
2023-05-14T05:20:52.297Z,46.6494
2023-05-14T05:21:54.053Z,46.6481
2023-05-14T05:22:55.791Z,46.6729
2023-05-14T05:23:57.514Z,46.6863
2023-05-14T05:24:59.240Z,46.6529
2023-05-14T05:26:00.989Z,46.6622
2023-05-14T05:27:02.742Z,46.6702
2023-05-14T05:28:04.460Z,46.6968
2023-05-14T05:29:06.213Z,46.6906
2023-05-14T05:30:07.917Z,46.7041
2023-05-14T05:31:09.662Z,46.7132
2023-05-14T05:32:11.393Z,46.7478
2023-05-14T05:33:13.131Z,46.7613
2023-05-14T05:34:14.863Z,46.7828
2023-05-14T05:35:16.581Z,46.8058
2023-05-14T05:36:18.320Z,46.8251
2023-05-14T05:37:20.049Z,46.8235
2023-05-14T05:38:21.799Z,46.8626
2023-05-14T05:39:23.546Z,46.8456
2023-05-14T05:40:25.661Z,46.8628
2023-05-14T05:41:26.972Z,46.8737
2023-05-14T05:42:28.721Z,46.8953
2023-05-14T05:43:30.437Z,46.9206
2023-05-14T05:44:32.197Z,46.9423
2023-05-14T05:45:33.922Z,46.9405
2023-05-14T05:46:35.675Z,46.9629
2023-05-14T05:47:37.468Z,46.9711
2023-05-14T05:48:39.109Z,46.9654
2023-05-14T05:49:40.870Z,46.9682
2023-05-14T05:50:42.591Z,46.9605
2023-05-14T05:51:44.326Z,46.9757
2023-05-14T05:52:46.036Z,46.9774
2023-05-14T05:53:47.842Z,46.9724
2023-05-14T05:54:49.524Z,46.9713
2023-05-14T05:55:51.237Z,46.9694
2023-05-14T05:56:52.980Z,46.9791
2023-05-14T05:57:54.714Z,46.9890
2023-05-14T05:58:56.470Z,46.9845
2023-05-14T05:59:58.196Z,47.0138
2023-05-14T06:00:59.913Z,47.0187
2023-05-14T06:02:01.667Z,47.0281
2023-05-14T06:03:03.416Z,47.0702
2023-05-14T06:04:05.115Z,47.0831
2023-05-14T06:05:06.874Z,47.1234
2023-05-14T06:06:08.622Z,47.1437
2023-05-14T06:07:10.292Z,47.1587
2023-05-14T06:08:12.046Z,47.1855
2023-05-14T06:09:13.764Z,47.2384
2023-05-14T06:10:15.537Z,47.2585
2023-05-14T06:11:17.282Z,47.2717
2023-05-14T06:12:18.967Z,47.2989
2023-05-14T06:13:20.707Z,47.3402
2023-05-14T06:14:22.432Z,47.3571
2023-05-14T06:15:24.199Z,47.3594
2023-05-14T06:16:25.931Z,47.3466
2023-05-14T06:17:27.733Z,47.4052
2023-05-14T06:18:29.411Z,47.4435
2023-05-14T06:19:31.097Z,47.4578
2023-05-14T06:20:32.856Z,47.4471
2023-05-14T06:21:34.586Z,47.4881
2023-05-14T06:22:36.329Z,47.5202
2023-05-14T06:23:38.044Z,47.5626
2023-05-14T06:24:39.767Z,47.5797
2023-05-14T06:25:41.487Z,47.5713
2023-05-14T06:26:43.231Z,47.6229
2023-05-14T06:27:44.974Z,47.6194
2023-05-14T06:28:46.697Z,47.6256
2023-05-14T06:29:48.416Z,47.6808
2023-05-14T06:30:50.148Z,47.6876
2023-05-14T06:31:51.900Z,47.7005
2023-05-14T06:32:53.654Z,47.6932
2023-05-14T06:33:55.343Z,47.6850
2023-05-14T06:34:57.094Z,47.7161
2023-05-14T06:35:58.932Z,47.7438
2023-05-14T06:37:00.654Z,47.7672
2023-05-14T06:38:02.366Z,47.7688
2023-05-14T06:39:04.103Z,47.7965
2023-05-14T06:40:05.836Z,47.8121
2023-05-14T06:41:07.580Z,47.8420
2023-05-14T06:42:09.325Z,47.8960
2023-05-14T06:43:11.019Z,47.9160
2023-05-14T06:44:12.751Z,47.8909
2023-05-14T06:45:14.478Z,47.9402
2023-05-14T06:46:16.263Z,47.9887
2023-05-14T06:47:17.989Z,48.0173
2023-05-14T06:48:19.773Z,48.0905
2023-05-14T06:49:21.403Z,48.1192
2023-05-14T06:50:23.290Z,48.1671
2023-05-14T06:51:24.887Z,48.2237
2023-05-14T06:52:26.619Z,48.2718
2023-05-14T06:53:28.370Z,48.3393
2023-05-14T06:54:30.102Z,48.3715
2023-05-14T06:55:31.835Z,48.3973
2023-05-14T06:56:33.572Z,48.4477
2023-05-14T06:57:35.303Z,48.4786
2023-05-14T06:58:37.022Z,48.5298
2023-05-14T06:59:38.732Z,48.5589
2023-05-14T07:00:40.500Z,48.6115
2023-05-14T07:01:42.250Z,48.6697
2023-05-14T07:02:44.011Z,48.7037
2023-05-14T07:03:45.702Z,48.7660
2023-05-14T07:04:47.452Z,48.7933
2023-05-14T07:05:49.134Z,48.8857
2023-05-14T07:06:50.870Z,48.9626
2023-05-14T07:07:52.605Z,49.0036
2023-05-14T07:08:54.366Z,49.0344
2023-05-14T07:09:56.100Z,49.0710
2023-05-14T07:10:57.819Z,49.1257
2023-05-14T07:11:59.538Z,49.1666
2023-05-14T07:13:01.277Z,49.2267
2023-05-14T07:14:02.999Z,49.2951
2023-05-14T07:15:04.759Z,49.3311
2023-05-14T07:16:06.476Z,49.4102
2023-05-14T07:17:08.260Z,49.4565
2023-05-14T07:18:09.934Z,49.5119
2023-05-14T07:19:11.725Z,49.5824
2023-05-14T07:20:13.412Z,49.6032
2023-05-14T07:21:15.128Z,49.6437
2023-05-14T07:22:16.876Z,49.6998
2023-05-14T07:23:19.774Z,49.7799
2023-05-14T07:24:20.316Z,49.8037
2023-05-14T07:25:22.062Z,49.8168
2023-05-14T07:26:23.799Z,49.8724
2023-05-14T07:27:25.531Z,49.9292
2023-05-14T07:28:27.243Z,49.9881
2023-05-14T07:29:28.986Z,50.0987
2023-05-14T07:30:30.718Z,50.0992
2023-05-14T07:31:32.485Z,50.1197
2023-05-14T07:32:34.191Z,50.1839
2023-05-14T07:33:35.923Z,50.2220
2023-05-14T07:34:37.644Z,50.2827
2023-05-14T07:35:39.378Z,50.2841
2023-05-14T07:36:41.083Z,50.3514
2023-05-14T07:37:42.845Z,50.4118
2023-05-14T07:38:44.550Z,50.4679
2023-05-14T07:39:46.293Z,50.4774
2023-05-14T07:40:48.028Z,50.5591
2023-05-14T07:41:49.732Z,50.6155
2023-05-14T07:42:51.472Z,50.7273
2023-05-14T07:43:53.216Z,50.8325
2023-05-14T07:44:54.950Z,50.8631
2023-05-14T07:45:56.688Z,50.9070
2023-05-14T07:46:58.442Z,50.9579
2023-05-14T07:48:00.317Z,50.9913
2023-05-14T07:49:01.856Z,51.0346
2023-05-14T07:50:03.596Z,51.0758
2023-05-14T07:51:05.352Z,51.1223
2023-05-14T07:52:07.067Z,51.1347
2023-05-14T07:53:08.776Z,51.1921
2023-05-14T07:54:10.512Z,51.2715
2023-05-14T07:55:12.247Z,51.2951
2023-05-14T07:56:14.006Z,51.3275
2023-05-14T07:57:15.730Z,51.4007
2023-05-14T07:58:17.435Z,51.3999
2023-05-14T07:59:19.178Z,51.4518
2023-05-14T08:00:20.970Z,51.4963
2023-05-14T08:01:22.657Z,51.5505
2023-05-14T08:02:24.505Z,51.5324
2023-05-14T08:03:26.205Z,51.5524
2023-05-14T08:04:27.895Z,51.5221
2023-05-14T08:05:29.583Z,51.5479
2023-05-14T08:06:31.289Z,51.5349
2023-05-14T08:07:33.038Z,51.5261
2023-05-14T08:08:34.773Z,51.5908
2023-05-14T08:09:36.481Z,51.6047
2023-05-14T08:10:38.235Z,51.6050
2023-05-14T08:11:39.961Z,51.5773
2023-05-14T08:12:41.676Z,51.5585
2023-05-14T08:13:43.434Z,51.5472
2023-05-14T08:14:45.138Z,51.4929
2023-05-14T08:15:46.884Z,51.4621
2023-05-14T08:16:48.670Z,51.4524
2023-05-14T08:17:50.371Z,51.4663
2023-05-14T08:18:52.078Z,51.4538
2023-05-14T08:19:53.773Z,51.4248
2023-05-14T08:20:55.535Z,51.3903
2023-05-14T08:21:57.256Z,51.4099
2023-05-14T08:22:58.996Z,51.3791
2023-05-14T08:24:00.707Z,51.4291
2023-05-14T08:25:02.462Z,51.4411
2023-05-14T08:26:04.200Z,51.4620
2023-05-14T08:27:05.889Z,51.4756
2023-05-14T08:28:07.653Z,51.4846
2023-05-14T08:29:10.765Z,51.5048
2023-05-14T08:30:11.105Z,51.5193
2023-05-14T08:31:12.861Z,51.4958
2023-05-14T08:32:22.766Z,51.5170
2023-05-14T08:33:16.274Z,51.5255
2023-05-14T08:34:18.029Z,51.5160
2023-05-14T08:35:19.763Z,51.5346
2023-05-14T08:36:21.499Z,51.5300
2023-05-14T08:37:23.208Z,51.5477
2023-05-14T08:38:24.927Z,51.5037
2023-05-14T08:39:26.654Z,51.4663
2023-05-14T08:40:28.414Z,51.4634
2023-05-14T08:41:30.136Z,51.4272
2023-05-14T08:42:31.848Z,51.4165
2023-05-14T08:43:33.573Z,51.4046
2023-05-14T08:44:35.353Z,51.3930
2023-05-14T08:45:37.054Z,51.3965
2023-05-14T08:46:38.793Z,51.4168
2023-05-14T08:47:40.547Z,51.4024
2023-05-14T08:48:42.241Z,51.4088
2023-05-14T08:49:43.960Z,51.4136
2023-05-14T08:50:45.709Z,51.4257
2023-05-14T08:51:47.447Z,51.4243
2023-05-14T08:52:49.160Z,51.4298
2023-05-14T08:53:50.875Z,51.4055
2023-05-14T08:54:52.611Z,51.3852
2023-05-14T08:55:54.332Z,51.3839
2023-05-14T08:56:56.079Z,51.3740
2023-05-14T08:57:57.810Z,51.3411
2023-05-14T08:58:59.505Z,51.3130
2023-05-14T09:00:01.290Z,51.3088
2023-05-14T09:01:02.968Z,51.2708
2023-05-14T09:02:04.810Z,51.2342
2023-05-14T09:03:06.487Z,51.2553
2023-05-14T09:04:08.157Z,51.2632
2023-05-14T09:05:09.898Z,51.2798
2023-05-14T09:06:11.598Z,51.3026
2023-05-14T09:07:13.351Z,51.3223
2023-05-14T09:08:15.073Z,51.2898
2023-05-14T09:09:16.819Z,51.2644
2023-05-14T09:10:18.526Z,51.2855
2023-05-14T09:11:20.241Z,51.3174
2023-05-14T09:12:22.011Z,51.3363
2023-05-14T09:13:24.140Z,51.3806
2023-05-14T09:14:25.449Z,51.4545
2023-05-14T09:15:27.161Z,51.4988
2023-05-14T09:16:28.941Z,51.5250
2023-05-14T09:17:30.671Z,51.5602
2023-05-14T09:18:32.397Z,51.5424
2023-05-14T09:19:34.110Z,51.5686
2023-05-14T09:20:35.805Z,51.5601
2023-05-14T09:21:37.518Z,51.5310
2023-05-14T09:22:39.264Z,51.5209
2023-05-14T09:23:41.004Z,51.4378
2023-05-14T09:24:42.730Z,51.3444
2023-05-14T09:25:44.460Z,51.2778
2023-05-14T09:26:46.188Z,51.2459
2023-05-14T09:27:47.913Z,51.2411
2023-05-14T09:28:49.635Z,51.2114
2023-05-14T09:29:51.341Z,51.1858
2023-05-14T09:30:53.082Z,51.1581
2023-05-14T09:31:54.898Z,51.1579
2023-05-14T09:32:56.615Z,51.1345
2023-05-14T09:33:58.292Z,51.1181
2023-05-14T09:34:59.992Z,51.1076
2023-05-14T09:36:01.723Z,51.0880
2023-05-14T09:37:03.475Z,51.0663
2023-05-14T09:38:05.190Z,51.0545
2023-05-14T09:39:06.921Z,51.0351
2023-05-14T09:40:08.637Z,51.0657
2023-05-14T09:41:10.358Z,51.0810
2023-05-14T09:42:12.099Z,51.1075
2023-05-14T09:43:13.820Z,51.1229
2023-05-14T09:44:15.545Z,51.1133
2023-05-14T09:45:17.271Z,51.1041
2023-05-14T09:46:18.990Z,51.1149
2023-05-14T09:47:20.799Z,51.1333
2023-05-14T09:48:22.579Z,51.1164
2023-05-14T09:49:24.180Z,51.1506
2023-05-14T09:50:26.153Z,51.2075
2023-05-14T09:51:27.640Z,51.1998
2023-05-14T09:52:29.360Z,51.2235
2023-05-14T09:53:31.087Z,51.1892
2023-05-14T09:54:32.815Z,51.1951
2023-05-14T09:55:34.519Z,51.2457
2023-05-14T09:56:36.286Z,51.3641
2023-05-14T09:57:38.002Z,51.4774
2023-05-14T09:58:39.709Z,51.5055
2023-05-14T09:59:41.431Z,51.5744
2023-05-14T10:00:43.189Z,51.6864
2023-05-14T10:01:44.983Z,51.8435
2023-05-14T10:02:46.699Z,51.8503
2023-05-14T10:03:48.369Z,51.9254
2023-05-14T10:04:50.325Z,51.9750
2023-05-14T10:05:51.820Z,51.9657
2023-05-14T10:06:53.546Z,52.0245
2023-05-14T10:07:55.289Z,52.0503
2023-05-14T10:08:57.003Z,52.0695
2023-05-14T10:09:59.546Z,52.1263
2023-05-14T10:11:00.472Z,52.1659
2023-05-14T10:12:02.214Z,52.1550
2023-05-14T10:13:03.899Z,52.1647
2023-05-14T10:14:05.639Z,52.1563
2023-05-14T10:15:07.386Z,52.1846
2023-05-14T10:16:09.121Z,52.1830
2023-05-14T10:17:10.950Z,52.1861
2023-05-14T10:18:12.607Z,52.1482
2023-05-14T10:19:14.305Z,52.1001
2023-05-14T10:20:16.054Z,52.0356
2023-05-14T10:21:17.764Z,52.0212
2023-05-14T10:22:19.494Z,51.9973
2023-05-14T10:23:21.226Z,51.9523
2023-05-14T10:24:22.927Z,51.9389
2023-05-14T10:25:24.669Z,51.9554
2023-05-14T10:26:26.431Z,51.8968
2023-05-14T10:27:28.140Z,51.8668
2023-05-14T10:28:29.861Z,51.8016
2023-05-14T10:29:31.571Z,51.7543
2023-05-14T10:30:33.304Z,51.7720
2023-05-14T10:31:35.094Z,51.8207
2023-05-14T10:32:36.829Z,51.8090
2023-05-14T10:33:38.513Z,51.8226
2023-05-14T10:34:40.235Z,51.8416
2023-05-14T10:35:41.943Z,51.8729
2023-05-14T10:36:43.673Z,51.8908
2023-05-14T10:37:45.429Z,51.9279
2023-05-14T10:38:47.159Z,51.8916
2023-05-14T10:39:48.978Z,51.8431
2023-05-14T10:40:52.824Z,51.7770
2023-05-14T10:41:52.418Z,51.7532
2023-05-14T10:42:54.136Z,51.7232
2023-05-14T10:43:55.897Z,51.6888
2023-05-14T10:44:57.623Z,51.6226
2023-05-14T10:45:59.331Z,51.5499
2023-05-14T10:47:01.070Z,51.4911
2023-05-14T10:48:02.788Z,51.4711
2023-05-14T10:49:04.536Z,51.3885
2023-05-14T10:50:06.266Z,51.3008
2023-05-14T10:51:08.043Z,51.2599
2023-05-14T10:52:09.691Z,51.1755
2023-05-14T10:53:11.422Z,51.1777
2023-05-14T10:54:13.168Z,51.1156
2023-05-14T10:55:14.926Z,51.0839
2023-05-14T10:56:16.632Z,51.1421
2023-05-14T10:57:18.370Z,51.1345
2023-05-14T10:58:20.068Z,51.1524
2023-05-14T10:59:21.820Z,51.1615
2023-05-14T11:00:23.746Z,51.1739
2023-05-14T11:01:25.328Z,51.1104
2023-05-14T11:02:27.043Z,51.0668
2023-05-14T11:03:28.765Z,51.0613
2023-05-14T11:04:30.456Z,51.0835
2023-05-14T11:05:32.203Z,51.1310
2023-05-14T11:06:33.930Z,51.1221
2023-05-14T11:07:35.674Z,51.0870
2023-05-14T11:08:37.395Z,51.0377
2023-05-14T11:09:39.106Z,50.9682
2023-05-14T11:10:40.826Z,50.8630
2023-05-14T11:11:42.604Z,50.8233
2023-05-14T11:12:44.323Z,50.8350
2023-05-14T11:13:46.051Z,50.8577
2023-05-14T11:14:47.783Z,50.9412
2023-05-14T11:15:49.503Z,51.0349
2023-05-14T11:16:51.233Z,51.1330
2023-05-14T11:17:52.954Z,51.2572
2023-05-14T11:18:54.739Z,51.2869
2023-05-14T11:19:56.412Z,51.3242
2023-05-14T11:20:58.146Z,51.3044
2023-05-14T11:21:59.850Z,51.3089
2023-05-14T11:23:01.577Z,51.3278
2023-05-14T11:24:03.303Z,51.3161
2023-05-14T11:25:05.052Z,51.3304
2023-05-14T11:26:06.841Z,51.3167
2023-05-14T11:27:08.497Z,51.3703
2023-05-14T11:28:10.248Z,51.3723
2023-05-14T11:29:11.961Z,51.3278
2023-05-14T11:30:13.689Z,51.2716
2023-05-14T11:31:15.444Z,51.2310
2023-05-14T11:32:17.169Z,51.2239
2023-05-14T11:33:18.954Z,51.1836
2023-05-14T11:34:20.627Z,51.1735
2023-05-14T11:35:22.355Z,51.2114
2023-05-14T11:36:24.061Z,51.2000
2023-05-14T11:37:25.793Z,51.1656
2023-05-14T11:38:27.527Z,51.1946
2023-05-14T11:39:29.257Z,51.1754
2023-05-14T11:40:31.002Z,51.1325
2023-05-14T11:41:32.705Z,51.0918
2023-05-14T11:42:34.448Z,51.0560
2023-05-14T11:43:36.166Z,51.0467
2023-05-14T11:44:37.921Z,51.0399
2023-05-14T11:45:39.693Z,51.0553
2023-05-14T11:46:41.413Z,51.0397
2023-05-14T11:47:43.116Z,51.0261
2023-05-14T11:48:44.809Z,51.0335
2023-05-14T11:49:46.556Z,51.0650
2023-05-14T11:50:48.284Z,51.0373
2023-05-14T11:51:50.013Z,51.0131
2023-05-14T11:52:51.723Z,51.0107
2023-05-14T11:53:53.445Z,50.9954
2023-05-14T11:54:55.193Z,50.9957
2023-05-14T11:55:56.923Z,50.9971
2023-05-14T11:56:58.625Z,50.9865
2023-05-14T11:58:00.365Z,50.9627
2023-05-14T11:59:02.091Z,50.9017
2023-05-14T12:00:03.820Z,50.7959
2023-05-14T12:01:05.582Z,50.7421
2023-05-14T12:02:07.337Z,50.7283
2023-05-14T12:03:09.065Z,50.6811
2023-05-14T12:04:10.843Z,50.6581
2023-05-14T12:05:12.570Z,50.6528
2023-05-14T12:06:14.213Z,50.6587
2023-05-14T12:07:15.952Z,50.6452
2023-05-14T12:08:17.660Z,50.6367
2023-05-14T12:09:19.380Z,50.6366
2023-05-14T12:10:21.121Z,50.6067
2023-05-14T12:11:22.863Z,50.5673
2023-05-14T12:12:24.600Z,50.5368
2023-05-14T12:13:26.325Z,50.4542
2023-05-14T12:14:28.037Z,50.3923
2023-05-14T12:15:29.775Z,50.2703
2023-05-14T12:16:31.588Z,50.1256
2023-05-14T12:17:33.261Z,50.0033
2023-05-14T12:18:35.060Z,49.8918
2023-05-14T12:19:36.697Z,49.8454
2023-05-14T12:20:38.430Z,49.7263
2023-05-14T12:21:40.165Z,49.6406
2023-05-14T12:22:41.864Z,49.6138
2023-05-14T12:23:43.605Z,49.6002
2023-05-14T12:24:45.347Z,49.6228
2023-05-14T12:25:47.073Z,49.5532
2023-05-14T12:26:48.814Z,49.6009
2023-05-14T12:27:50.515Z,49.6298
2023-05-14T12:28:52.256Z,49.6723
2023-05-14T12:29:53.997Z,49.7128
2023-05-14T12:30:55.747Z,49.7570
2023-05-14T12:31:57.546Z,49.7975
2023-05-14T12:32:59.250Z,49.8432